Baldwinsville, New York
Current Conditions -  °F | °C
As of 4:54 PM on Thursday 23 Oct 2014 (Local Time) from KSYR Reporting Station
Overcast Overcast  
Wind Chill: 53°   Ceiling: 3100
Heat Index: 53°   Visibility: 10mi
Dew Point: 42°   Wind: 12mph
Humidity: 66%   Direction: 330°NNW
Pressure: 29.94"   Gusts: NA
Location:  43.16°N, 76.33°W
Report Text: KSYR 232054Z 33010KT 10SM OVC031 12/06 A2994 RMK AO2 SLP136 60000 T01170056 58001
Loading
Personal Weather Stations






























Interactive Weather Map
Tropical Storm Tracking
New forecast layout! Learn more

10-Day Weather Forecast

Advertisements
Track Severe Weather on mobile